Time;durP1;ratioP1;P1;durP2;ratioP2;P2;SDS_P1;SDS_P2;PMS_P1;PMS_P2;Temp;Humidity;BMP_temperature;BMP_pressure;BME280_temperature;BME280_humidity;BME280_pressure;Samples;Min_cycle;Max_cycle;Signal;HPM_P1;HPM_P2
2021/05/22 07:10:12;;;;;;;;;;;;;;;13.59;60.14;98762.31;4335713;26;20185;-84
2021/05/22 07:12:38;;;;;;;;;;;;;;;13.58;60.18;98773.91;4997758;28;19943;-85
2021/05/22 07:15:04;;;;;;;;;;;;;;;13.59;59.68;98780.09;4997543;28;19942;-84
2021/05/22 07:17:29;;;;;;;;;;;;;;;13.58;59.56;98781.91;4997387;28;20285;-83
2021/05/22 07:19:55;;;;;;;;;;;;;;;13.58;60.13;98787.22;4997758;28;19941;-83
2021/05/22 07:22:20;;;;;;;;;;;;;;;13.59;59.70;98790.72;4997727;28;19925;-84
2021/05/22 07:24:48;;;;;;;;;;;;;;;13.60;59.75;98789.78;4997094;28;19991;-84
2021/05/22 07:27:14;;;;;;;;;;;;;;;13.63;59.36;98794.88;4993031;28;20264;-85
2021/05/22 07:29:39;;;;;;;;;;;;;;;13.64;59.31;98780.59;4993846;28;19922;-84
2021/05/22 07:32:05;;;;;;;;;;;;;;;13.62;59.38;98783.41;4994862;28;19941;-84
2021/05/22 07:34:30;;;;;;;;;;;;;;;13.62;59.53;98778.06;4995393;28;20267;-84
2021/05/22 07:36:55;;;;;;;;;;;;;;;13.63;59.40;98784.25;4994805;28;19922;-84
2021/05/22 07:39:21;;;;;;;;;;;;;;;13.61;59.50;98787.00;4993450;28;19921;-86
2021/05/22 07:41:46;;;;;;;;;;;;;;;13.61;59.71;98780.84;4994055;28;20170;-85
2021/05/22 07:44:12;;;;;;;;;;;;;;;13.62;59.61;98791.38;4997564;28;19922;-84
2021/05/22 07:46:37;;;;;;;;;;;;;;;13.63;59.47;98785.06;4993408;28;20289;-84
2021/05/22 07:49:02;;;;;;;;;;;;;;;13.65;59.57;98776.16;4996401;28;19922;-84
2021/05/22 07:51:28;;;;;;;;;;;;;;;13.64;59.63;98769.94;4995030;28;19922;-84
2021/05/22 07:53:53;;;;;;;;;;;;;;;13.61;59.58;98780.84;4993416;28;19948;-84
2021/05/22 07:56:18;;;;;;;;;;;;;;;13.63;59.63;98803.72;4994935;28;19925;-84
2021/05/22 07:58:45;;;;;;;;;;;;;;;13.61;59.56;98796.81;4995863;28;19925;-83
2021/05/22 08:01:10;;;;;;;;;;;;;;;13.60;59.63;98795.09;4995422;28;20388;-83
2021/05/22 08:03:35;;;;;;;;;;;;;;;13.61;59.72;98816.28;4996856;28;19921;-83
2021/05/22 08:06:01;;;;;;;;;;;;;;;13.63;59.52;98805.53;4996919;28;19936;-84
2021/05/22 08:08:26;;;;;;;;;;;;;;;13.63;59.51;98811.69;4996417;28;19937;-83
2021/05/22 08:10:51;;;;;;;;;;;;;;;13.65;59.54;98810.75;4995481;28;19921;-83
2021/05/22 08:13:17;;;;;;;;;;;;;;;13.63;59.63;98801.03;4996623;28;20105;-84
2021/05/22 08:15:42;;;;;;;;;;;;;;;13.63;59.68;98801.03;4997560;28;20364;-84
2021/05/22 08:18:07;;;;;;;;;;;;;;;13.65;59.73;98805.44;4996802;28;20360;-86
2021/05/22 08:20:33;;;;;;;;;;;;;;;13.66;59.69;98809.75;4997189;28;19921;-83
2021/05/22 08:22:58;;;;;;;;;;;;;;;13.66;59.80;98821.28;4994290;28;20213;-84
2021/05/22 08:28:28;;;;;;;;;;;;;;;13.68;60.00;98810.53;4998099;28;19937;-84
2021/05/22 08:30:54;;;;;;;;;;;;;;;13.68;60.22;98810.53;5007360;28;20293;-83
2021/05/22 08:33:19;;;;;;;;;;;;;;;13.66;60.42;98801.78;5008928;28;19914;-84
2021/05/22 08:35:44;;;;;;;;;;;;;;;13.66;60.50;98807.09;4992614;28;20340;-84
2021/05/22 08:38:10;;;;;;;;;;;;;;;13.70;60.61;98813.94;4994472;28;20024;-84
2021/05/22 08:40:35;;;;;;;;;;;;;;;13.67;60.60;98809.66;4994995;28;19922;-84
2021/05/22 08:43:00;;;;;;;;;;;;;;;13.66;60.41;98820.41;4995829;28;19922;-85
2021/05/22 08:45:26;;;;;;;;;;;;;;;13.66;60.51;98820.41;4995586;28;19949;-84
2021/05/22 08:47:52;;;;;;;;;;;;;;;13.65;60.76;98822.22;4993806;28;20024;-85
2021/05/22 08:50:18;;;;;;;;;;;;;;;13.66;60.51;98809.75;4995256;28;20220;-85
2021/05/22 08:52:44;;;;;;;;;;;;;;;13.66;60.42;98815.97;4997444;28;20017;-85
2021/05/22 08:55:09;;;;;;;;;;;;;;;13.68;60.40;98821.19;4994495;28;19922;-84
2021/05/22 08:57:35;;;;;;;;;;;;;;;13.65;60.63;98829.38;4995357;28;20170;-84
2021/05/22 09:00:00;;;;;;;;;;;;;;;13.67;60.43;98828.28;4996352;28;20186;-86
2021/05/22 09:02:27;;;;;;;;;;;;;;;13.66;60.35;98820.41;4997129;28;20204;-86
2021/05/22 09:05:10;;;;;;;;;;;;;;;13.63;60.40;98827.66;4997205;28;19950;-85
2021/05/22 09:07:39;;;;;;;;;;;;;;;13.65;60.51;98826.72;4997102;28;20460;-87
2021/05/22 09:10:10;;;;;;;;;;;;;;;13.65;60.77;98832.88;4996634;28;19922;-86
2021/05/22 09:12:36;;;;;;;;;;;;;;;13.65;60.66;98824.06;4996863;28;20032;-85
2021/05/22 09:15:06;;;;;;;;;;;;;;;13.66;61.05;98841.72;4996639;28;19921;-84
2021/05/22 09:17:31;;;;;;;;;;;;;;;13.65;60.74;98832.03;4996236;28;20393;-83
2021/05/22 09:20:09;;;;;;;;;;;;;;;13.64;60.80;98828.50;4996952;28;19928;-85
2021/05/22 09:22:34;;;;;;;;;;;;;;;13.66;60.78;98836.38;4996073;28;19922;-84
2021/05/22 09:25:01;;;;;;;;;;;;;;;13.66;60.85;98837.25;4994642;28;19948;-84
2021/05/22 09:27:30;;;;;;;;;;;;;;;13.65;60.82;98837.38;4993605;28;20333;-84
2021/05/22 09:29:56;;;;;;;;;;;;;;;13.66;60.87;98844.38;4994799;28;19922;-85
2021/05/22 09:32:21;;;;;;;;;;;;;;;13.67;60.90;98843.41;4995686;28;20029;-85
2021/05/22 09:34:48;;;;;;;;;;;;;;;13.66;60.87;98850.56;4995406;28;19984;-85
2021/05/22 09:37:13;;;;;;;;;;;;;;;13.66;61.12;98858.56;4995855;28;19987;-84
2021/05/22 09:39:49;;;;;;;;;;;;;;;13.67;61.07;98872.69;4992457;28;21472;-86
2021/05/22 09:42:14;;;;;;;;;;;;;;;13.67;61.08;98864.72;4976028;28;19989;-85
2021/05/22 09:44:40;;;;;;;;;;;;;;;13.65;61.39;98866.66;4977347;28;19918;-85
2021/05/22 09:47:07;;;;;;;;;;;;;;;13.65;61.60;98867.47;4976751;28;20008;-86
2021/05/22 09:49:33;;;;;;;;;;;;;;;13.64;61.80;98855.13;4976651;28;19941;-85
2021/05/22 09:51:59;;;;;;;;;;;;;;;13.63;61.91;98848.97;4976640;28;20260;-86
2021/05/22 09:54:41;;;;;;;;;;;;;;;13.64;62.15;98860.44;4976750;28;20050;-84
2021/05/22 09:57:07;;;;;;;;;;;;;;;13.62;62.29;98844.63;4973394;28;19926;-84
2021/05/22 09:59:33;;;;;;;;;;;;;;;13.64;62.15;98855.13;4976490;28;20463;-85
2021/05/22 10:01:58;;;;;;;;;;;;;;;13.64;62.30;98860.44;4974611;28;19989;-85
2021/05/22 10:04:24;;;;;;;;;;;;;;;13.65;62.21;98877.28;4972850;28;19984;-84
2021/05/22 10:06:49;;;;;;;;;;;;;;;13.66;62.32;98868.31;4972930;28;19926;-85
2021/05/22 10:09:18;;;;;;;;;;;;;;;13.65;62.43;98871.97;4975355;28;19980;-85
2021/05/22 10:12:02;;;;;;;;;;;;;;;13.64;62.62;98876.41;4980321;28;19956;-85
2021/05/22 10:14:30;;;;;;;;;;;;;;;13.66;62.67;98881.63;4990464;28;20009;-85
2021/05/22 10:16:56;;;;;;;;;;;;;;;13.65;62.89;98874.63;4997428;28;19932;-84
2021/05/22 10:19:21;;;;;;;;;;;;;;;13.63;62.97;98872.91;4998035;28;19922;-85
2021/05/22 10:21:47;;;;;;;;;;;;;;;13.62;63.75;98887.19;4997922;28;20566;-85
2021/05/22 10:24:13;;;;;;;;;;;;;;;13.62;63.96;98895.19;4996952;28;19933;-85
2021/05/22 10:26:40;;;;;;;;;;;;;;;13.63;64.57;98885.38;4999227;28;19933;-85
2021/05/22 10:29:05;;;;;;;;;;;;;;;13.61;65.04;98888.16;4998655;28;19930;-85
2021/05/22 10:31:37;;;;;;;;;;;;;;;13.63;64.98;98894.22;4997706;28;20003;-84
2021/05/22 10:34:08;;;;;;;;;;;;;;;13.65;65.20;98887.94;4997464;28;19921;-84
2021/05/22 10:36:51;;;;;;;;;;;;;;;13.64;65.32;98876.41;4999800;28;20285;-85
2021/05/22 10:39:33;;;;;;;;;;;;;;;13.65;65.54;98871.97;4995181;28;19921;-84
2021/05/22 10:41:58;;;;;;;;;;;;;;;13.66;65.73;98878.97;4995888;28;20009;-84
2021/05/22 10:44:32;;;;;;;;;;;;;;;13.66;65.79;98873.66;4994914;28;20021;-84
2021/05/22 10:47:05;;;;;;;;;;;;;;;13.67;65.75;98878.03;4997009;28;19933;-83
2021/05/22 10:49:51;;;;;;;;;;;;;;;13.70;65.10;98901.78;4997501;28;19922;-84
2021/05/22 10:52:18;;;;;;;;;;;;;;;13.69;65.14;98902.72;4998033;28;19922;-84
